AirNav   Air Wisconsin Up To $57,000 Bonus
 
 1857 users online  

91NE
(formerly 3NO)
North Omaha Airport
Omaha, Nebraska, USA

GOING TO OMAHA?


FAA INFORMATION EFFECTIVE 26 JANUARY 2023

Location

FAA Identifier: 91NE
Lat/Long: 41-22-09.4400N 096-01-20.9800W
41-22.157333N 096-01.349667W
41.3692889,-96.0224944
(estimated)
Elevation: 1324 ft. / 404 m (estimated)
Variation: 06E (1985)
From city: 7 miles NW of OMAHA, NE
Time zone: UTC -6 (UTC -5 during Daylight Saving Time)
Zip code: 68152

Airport Operations

Airport use: Private use. Permission required prior to landing
Activation date: 05/1947
Control tower: no
ARTCC: MINNEAPOLIS CENTER
FSS: COLUMBUS FLIGHT SERVICE STATION
NOTAMs facility: OLU (NOTAM-D service available)
Attendance: DAWN-DUSK
FOR SERVICE OTHER HRS CALL 402-571-7585.
Wind indicator: lighted
Segmented circle: no
Lights: SS-SR
Landing fee: yes

Airport Communications

CTAF/UNICOM: 122.8
WX AWOS-3 at BTA (5 nm NW): 120.225 (402-426-0448)
WX ASOS at OMA (7 nm SE): PHONE 402-271-7515
WX AWOS-3 at MLE (11 nm S): 118.25 (402-895-6778)
WX AWOS-3 at CBF (14 nm SE): 126.575 (712-323-1542)

Nearby radio navigation aids

VOR radial/distance  VOR name  Freq  Var
OVRr305/17.7OMAHA VORTAC116.3008E
SCBr111/30.7SCRIBNER VOR/DME111.0006E

 
NDB name  Hdg/Dist  Freq  Var  ID
PLATTSMOUTH344/26.032905EPMV .--. -- ...-
WAHOO067/27.140006EAHQ .- .... --.-

Airport Services

Fuel available: 100LL
Parking: hangars and tiedowns
Airframe service: NONE
Powerplant service: NONE
Bottled oxygen: NONE
Bulk oxygen: NONE

Runway Information

Runway 17/35

Dimensions: 3173 x 40 ft. / 967 x 12 m
Surface: concrete, in fair condition
Weight bearing capacity: 
Single wheel: 28.0
Runway edge lights: non-standard
RUNWAY 17  RUNWAY 35
Latitude: 41-22.419000N41-21.896167N
Longitude: 096-01.345167W096-01.354000W
Elevation: 1324.0 ft.1313.0 ft.
Traffic pattern: leftleft
Markings: numbers only, in good conditionnumbers only, in good condition
Obstructions: 39 ft. trees, 810 ft. from runway, 118 ft. right of centerline, 15:1 slope to clear
RWY 17 CLNC SLOPE 23:1 DUE TO 39 FT TREE 924 FT FROM DSPLCD THLD.
74 ft. trees, 816 ft. from runway, 157 ft. left of centerline, 8:1 slope to clear
RWY 35 ROAD 84 FT FM RWY END, 10' ABV.

Airport Ownership and Management from official FAA records

Ownership: Privately-owned
Owner: PAT ACKERMAN
11901 N 72ND ST
OMAHA, NE 68122-3812
Manager: PAT ACKERMAN
11901 N 72ND ST
OMAHA, NE 68122-3812

Airport Operational Statistics

Aircraft based on the field: 57
Single engine airplanes: 50
Helicopters: 7
    
Aircraft operations: avg 39/day *
91% local general aviation
9% transient general aviation
* for 12-month period ending 29 August 2018

Additional Remarks

A51-35 RWY 35 DSPLCD THLD MKNS NSTD SMALL ARROWS & CHEVRONS.
OVNGT PRKG FEE.
RY 17/35 CLSD TO ACFT 8000 LBS AND OVR.
FOR CD CTC OMAHA APCH AT 402-682-4395.
NO FIRE EXTINGUISHER AT FUEL STATION
PPR TO LAND.

Instrument Procedures

There are no published instrument procedures at 91NE.

Some nearby airports with instrument procedures:

KBTA - Blair Executive Airport (5 nm NW)
KOMA - Eppley Airfield (7 nm SE)
KMLE - Millard Airport (11 nm S)
KCBF - Council Bluffs Municipal Airport (14 nm SE)
KOFF - Offutt Air Force Base (16 nm S)
 
Loc | Ops | Rwys | IFR | FBO | Links
Com | Nav | Svcs | Stats | Notes
Area around 91NE (North Omaha Airport)
 
Road maps at: MapQuest Bing Google
 
Aerial photo
WARNING: Photo may not be current or correct
Aerial photo of 91NE (North Omaha Airport)
Photo by William Maxey
Photo taken 12-Sep-2006

Do you have a better or more recent aerial photo of North Omaha Airport that you would like to share? If so, please send us your photo.

 
Sectional chart

 
Airport distance calculator
Flying to North Omaha Airport? Find the distance to fly.

From to 91NE

Sunrise and sunset
Times for 31-Jan-2023
 Local
(UTC-6)
 Zulu
(UTC)
Morning civil twilight07:0813:08
Sunrise07:3813:38
Sunset17:3823:38
Evening civil twilight18:0700:07

Current date and time
Zulu (UTC)  31-Jan-2023 16:49:49
Local (UTC-6)  31-Jan-2023 10:49:49
 
METAR
KBTA 
5nm NW 
311635Z AUTO 21012KT 10SM CLR M11/M16 A3036 RMK AO2 T11061160
KOMA 
6nm SE 
311552Z 20009KT 10SM FEW150 M11/M16 A3040 RMK AO2 SLP316 T11061161
KMLE 
11nm S 
311635Z AUTO 24007KT 10SM CLR M09/M16 A3040 RMK AO2 T10861165
KCBF 
13nm SE 
311635Z AUTO 23011KT 10SM CLR M09/M18 A3036 RMK AO2
KOFF 
16nm S 
311555Z AUTO 22013KT 10SM CLR M09/M17 A3041 RMK AO2 SLP326 T10911174 PWINO PNO FZRANO TSNO $
TAF
KOMA 
6nm SE 
311120Z 3112/0112 18008KT P6SM BKN100 FM311600 21010KT P6SM FEW250 FM010000 18007KT P6SM SKC
KOFF 
16nm S 
311000Z 3110/0116 23009KT 9999 BKN110 QNH3035INS BECMG 3119/3120 23009KT 9999 FEW110 QNH3025INS TXM04/3122Z TNM14/3112Z
NOTAMs
Click for the latest NOTAMs
NOTAMs are issued by the DoD/FAA and will open in a separate window not controlled by AirNav.

 

 
 

FBO, Fuel Providers, and Aircraft Ground Support

  
 Business Name 
 
 Contact 
 
 Services / Description 
 
Fuel Prices
 
Comments
  
North Omaha Airport 402-681-5324
no information available

If you are affiliated with North Omaha Airport and would like to show here your services, contact info, web link, logo, and more, click here
100LL
SS $5.45 
 Updated 06-Sep-2022
 
   write
SS=Self service
Update Fuel Prices
 

Would you like to see your business listed on this page?

 If your business provides an interesting product or service to pilots, flight crews, aircraft, or users of the North Omaha Airport, you should consider listing it here.  To start the listing process, click on the button below
 
Add a business
 

Other Pages about North Omaha Airport

Update a link
 
Copyright © AirNav, LLC. All rights reserved. Privacy Policy  Contact